sensor_id;sensor_type;location;lat;lon;timestamp;pressure;altitude;pressure_sealevel;temperature;humidity
63694;BME280;49839;51.798;10.954;2023-08-01T00:02:05;97605.25;;;16.21;nan
63694;BME280;49839;51.798;10.954;2023-08-01T00:04:33;97599.31;;;16.27;nan
63694;BME280;49839;51.798;10.954;2023-08-01T00:07:00;97589.06;;;16.32;nan
63694;BME280;49839;51.798;10.954;2023-08-01T00:09:28;97583.94;;;16.39;nan
63694;BME280;49839;51.798;10.954;2023-08-01T00:11:57;97591.75;;;16.40;nan
63694;BME280;49839;51.798;10.954;2023-08-01T00:14:24;97575.63;;;16.42;nan
63694;BME280;49839;51.798;10.954;2023-08-01T00:16:52;97570.19;;;16.43;nan
63694;BME280;49839;51.798;10.954;2023-08-01T00:19:19;97561.69;;;16.40;nan
63694;BME280;49839;51.798;10.954;2023-08-01T00:21:47;97569.19;;;16.44;nan
63694;BME280;49839;51.798;10.954;2023-08-01T00:24:14;97563.69;;;16.46;nan
63694;BME280;49839;51.798;10.954;2023-08-01T00:26:42;97543.94;;;16.48;nan
63694;BME280;49839;51.798;10.954;2023-08-01T00:29:11;97524.50;;;16.48;nan
63694;BME280;49839;51.798;10.954;2023-08-01T00:31:38;97525.19;;;16.50;nan
63694;BME280;49839;51.798;10.954;2023-08-01T00:34:06;97514.22;;;16.53;nan
63694;BME280;49839;51.798;10.954;2023-08-01T00:36:33;97503.28;;;16.56;nan
63694;BME280;49839;51.798;10.954;2023-08-01T00:39:01;97497.63;;;16.59;nan
63694;BME280;49839;51.798;10.954;2023-08-01T00:41:29;97488.50;;;16.62;nan
63694;BME280;49839;51.798;10.954;2023-08-01T00:43:57;97492.00;;;16.62;nan
63694;BME280;49839;51.798;10.954;2023-08-01T00:46:25;97482.03;;;16.64;nan
63694;BME280;49839;51.798;10.954;2023-08-01T00:48:53;97472.03;;;16.66;nan
63694;BME280;49839;51.798;10.954;2023-08-01T00:51:24;97459.56;;;16.67;nan
63694;BME280;49839;51.798;10.954;2023-08-01T00:53:52;97468.38;;;16.67;nan
63694;BME280;49839;51.798;10.954;2023-08-01T00:56:19;97458.75;;;16.66;nan
63694;BME280;49839;51.798;10.954;2023-08-01T00:58:47;97455.41;;;16.64;nan
63694;BME280;49839;51.798;10.954;2023-08-01T01:01:14;97463.41;;;16.64;nan
63694;BME280;49839;51.798;10.954;2023-08-01T01:03:43;97470.56;;;16.64;nan
63694;BME280;49839;51.798;10.954;2023-08-01T01:06:12;97471.22;;;16.66;nan
63694;BME280;49839;51.798;10.954;2023-08-01T01:08:42;97479.72;;;16.69;nan
63694;BME280;49839;51.798;10.954;2023-08-01T01:11:09;97458.28;;;16.71;nan
63694;BME280;49839;51.798;10.954;2023-08-01T01:13:37;97456.00;;;16.76;nan
63694;BME280;49839;51.798;10.954;2023-08-01T01:16:04;97461.50;;;16.83;nan
63694;BME280;49839;51.798;10.954;2023-08-01T01:18:32;97442.88;;;16.83;nan
63694;BME280;49839;51.798;10.954;2023-08-01T01:21:01;97437.19;;;16.86;nan
63694;BME280;49839;51.798;10.954;2023-08-01T01:23:28;97431.41;;;16.90;nan
63694;BME280;49839;51.798;10.954;2023-08-01T01:25:57;97440.56;;;16.88;nan
63694;BME280;49839;51.798;10.954;2023-08-01T01:28:25;97432.06;;;16.84;nan
63694;BME280;49839;51.798;10.954;2023-08-01T01:30:53;97432.56;;;16.88;nan
63694;BME280;49839;51.798;10.954;2023-08-01T01:33:22;97426.25;;;16.89;nan
63694;BME280;49839;51.798;10.954;2023-08-01T01:35:49;97430.09;;;16.94;nan
63694;BME280;49839;51.798;10.954;2023-08-01T01:38:18;97414.44;;;16.99;nan
63694;BME280;49839;51.798;10.954;2023-08-01T01:40:46;97420.59;;;17.00;nan
63694;BME280;49839;51.798;10.954;2023-08-01T01:43:13;97436.53;;;17.00;nan
63694;BME280;49839;51.798;10.954;2023-08-01T01:45:41;97433.56;;;16.95;nan
63694;BME280;49839;51.798;10.954;2023-08-01T01:48:08;97430.22;;;16.93;nan
63694;BME280;49839;51.798;10.954;2023-08-01T01:50:36;97422.06;;;16.86;nan
63694;BME280;49839;51.798;10.954;2023-08-01T01:53:03;97414.25;;;16.85;nan
63694;BME280;49839;51.798;10.954;2023-08-01T01:55:31;97421.94;;;16.88;nan
63694;BME280;49839;51.798;10.954;2023-08-01T01:57:59;97422.41;;;16.91;nan
63694;BME280;49839;51.798;10.954;2023-08-01T02:00:26;97421.09;;;16.95;nan
63694;BME280;49839;51.798;10.954;2023-08-01T02:02:54;97413.47;;;17.00;nan
63694;BME280;49839;51.798;10.954;2023-08-01T02:05:21;97400.97;;;17.01;nan
63694;BME280;49839;51.798;10.954;2023-08-01T02:07:49;97402.97;;;16.99;nan
63694;BME280;49839;51.798;10.954;2023-08-01T02:10:16;97399.28;;;17.00;nan
63694;BME280;49839;51.798;10.954;2023-08-01T02:12:45;97391.00;;;17.03;nan
63694;BME280;49839;51.798;10.954;2023-08-01T02:15:13;97375.22;;;17.01;nan
63694;BME280;49839;51.798;10.954;2023-08-01T02:17:40;97371.19;;;16.97;nan
63694;BME280;49839;51.798;10.954;2023-08-01T02:20:08;97364.53;;;16.93;nan
63694;BME280;49839;51.798;10.954;2023-08-01T02:22:36;97379.03;;;16.91;nan
63694;BME280;49839;51.798;10.954;2023-08-01T02:25:03;97373.53;;;16.92;nan
63694;BME280;49839;51.798;10.954;2023-08-01T02:27:31;97362.88;;;16.92;nan
63694;BME280;49839;51.798;10.954;2023-08-01T02:30:00;97379.03;;;16.91;nan
63694;BME280;49839;51.798;10.954;2023-08-01T02:32:28;97374.34;;;16.93;nan
63694;BME280;49839;51.798;10.954;2023-08-01T02:34:57;97367.72;;;16.97;nan
63694;BME280;49839;51.798;10.954;2023-08-01T02:37:24;97360.56;;;16.97;nan
63694;BME280;49839;51.798;10.954;2023-08-01T02:39:51;97348.91;;;16.98;nan
63694;BME280;49839;51.798;10.954;2023-08-01T02:42:19;97342.44;;;17.01;nan
63694;BME280;49839;51.798;10.954;2023-08-01T02:44:46;97325.97;;;16.97;nan
63694;BME280;49839;51.798;10.954;2023-08-01T02:47:15;97311.66;;;16.98;nan
63694;BME280;49839;51.798;10.954;2023-08-01T02:49:43;97311.50;;;17.00;nan
63694;BME280;49839;51.798;10.954;2023-08-01T02:52:11;97316.66;;;17.01;nan
63694;BME280;49839;51.798;10.954;2023-08-01T02:54:38;97315.66;;;17.02;nan
63694;BME280;49839;51.798;10.954;2023-08-01T02:57:06;97315.84;;;17.01;nan
63694;BME280;49839;51.798;10.954;2023-08-01T02:59:33;97315.47;;;17.04;nan
63694;BME280;49839;51.798;10.954;2023-08-01T03:02:01;97301.19;;;17.05;nan
63694;BME280;49839;51.798;10.954;2023-08-01T03:04:30;97284.53;;;17.11;nan
63694;BME280;49839;51.798;10.954;2023-08-01T03:07:10;97286.88;;;17.14;nan
63694;BME280;49839;51.798;10.954;2023-08-01T03:09:38;97277.06;;;17.15;nan
63694;BME280;49839;51.798;10.954;2023-08-01T03:12:06;97249.44;;;17.16;nan
63694;BME280;49839;51.798;10.954;2023-08-01T03:14:34;97240.94;;;17.12;nan
63694;BME280;49839;51.798;10.954;2023-08-01T03:17:01;97228.81;;;17.10;nan
63694;BME280;49839;51.798;10.954;2023-08-01T03:19:30;97215.53;;;17.10;nan
63694;BME280;49839;51.798;10.954;2023-08-01T03:21:58;97191.91;;;17.06;nan
63694;BME280;49839;51.798;10.954;2023-08-01T03:24:25;97168.81;;;16.99;nan
63694;BME280;49839;51.798;10.954;2023-08-01T03:26:53;97153.03;;;16.97;nan
63694;BME280;49839;51.798;10.954;2023-08-01T03:29:20;97133.59;;;16.97;nan
63694;BME280;49839;51.798;10.954;2023-08-01T03:31:48;97113.63;;;16.93;nan
63694;BME280;49839;51.798;10.954;2023-08-01T03:34:15;97094.34;;;16.91;nan
63694;BME280;49839;51.798;10.954;2023-08-01T03:36:44;97051.97;;;16.89;nan
63694;BME280;49839;51.798;10.954;2023-08-01T03:39:12;97071.09;;;16.85;nan
63694;BME280;49839;51.798;10.954;2023-08-01T03:41:39;97067.97;;;16.81;nan
63694;BME280;49839;51.798;10.954;2023-08-01T03:44:07;97063.00;;;16.78;nan
63694;BME280;49839;51.798;10.954;2023-08-01T03:46:35;97055.00;;;16.78;nan
63694;BME280;49839;51.798;10.954;2023-08-01T03:49:02;97058.31;;;16.80;nan
63694;BME280;49839;51.798;10.954;2023-08-01T03:51:30;97067.50;;;16.77;nan
63694;BME280;49839;51.798;10.954;2023-08-01T03:53:59;97065.00;;;16.76;nan
63694;BME280;49839;51.798;10.954;2023-08-01T03:56:38;97066.47;;;16.78;nan
63694;BME280;49839;51.798;10.954;2023-08-01T03:59:09;97074.28;;;16.80;nan
63694;BME280;49839;51.798;10.954;2023-08-01T04:01:37;97090.09;;;16.82;nan
63694;BME280;49839;51.798;10.954;2023-08-01T04:04:04;97094.22;;;16.84;nan
63694;BME280;49839;51.798;10.954;2023-08-01T04:06:33;97110.00;;;16.86;nan
63694;BME280;49839;51.798;10.954;2023-08-01T04:09:02;97115.31;;;16.86;nan
63694;BME280;49839;51.798;10.954;2023-08-01T04:11:29;97118.66;;;16.88;nan
63694;BME280;49839;51.798;10.954;2023-08-01T04:13:57;97103.16;;;16.91;nan
63694;BME280;49839;51.798;10.954;2023-08-01T04:16:24;97108.31;;;16.93;nan
63694;BME280;49839;51.798;10.954;2023-08-01T04:18:52;97107.97;;;16.96;nan
63694;BME280;49839;51.798;10.954;2023-08-01T04:21:19;97107.63;;;16.99;nan
63694;BME280;49839;51.798;10.954;2023-08-01T04:23:47;97133.72;;;17.03;nan
63694;BME280;49839;51.798;10.954;2023-08-01T04:26:16;97181.78;;;17.02;nan
63694;BME280;49839;51.798;10.954;2023-08-01T04:28:45;97232.00;;;17.05;nan
63694;BME280;49839;51.798;10.954;2023-08-01T04:31:12;97239.31;;;17.03;nan
63694;BME280;49839;51.798;10.954;2023-08-01T04:33:40;97236.47;;;17.04;nan
63694;BME280;49839;51.798;10.954;2023-08-01T04:36:08;97230.66;;;17.09;nan
63694;BME280;49839;51.798;10.954;2023-08-01T04:38:35;97226.81;;;17.12;nan
63694;BME280;49839;51.798;10.954;2023-08-01T04:41:03;97210.03;;;17.11;nan
63694;BME280;49839;51.798;10.954;2023-08-01T04:43:31;97215.53;;;17.10;nan
63694;BME280;49839;51.798;10.954;2023-08-01T04:45:59;97189.41;;;17.13;nan
63694;BME280;49839;51.798;10.954;2023-08-01T04:48:27;97201.56;;;17.08;nan
63694;BME280;49839;51.798;10.954;2023-08-01T04:50:54;97191.75;;;17.08;nan
63694;BME280;49839;51.798;10.954;2023-08-01T04:53:22;97195.41;;;17.07;nan
63694;BME280;49839;51.798;10.954;2023-08-01T04:55:50;97173.59;;;17.12;nan
63694;BME280;49839;51.798;10.954;2023-08-01T04:58:17;97167.94;;;17.06;nan
63694;BME280;49839;51.798;10.954;2023-08-01T05:00:46;97162.47;;;17.08;nan
63694;BME280;49839;51.798;10.954;2023-08-01T05:03:14;97173.94;;;17.09;nan
63694;BME280;49839;51.798;10.954;2023-08-01T05:05:41;97175.09;;;17.06;nan
63694;BME280;49839;51.798;10.954;2023-08-01T05:08:09;97172.28;;;17.08;nan
63694;BME280;49839;51.798;10.954;2023-08-01T05:10:37;97173.94;;;17.09;nan
63694;BME280;49839;51.798;10.954;2023-08-01T05:13:05;97172.59;;;17.13;nan
63694;BME280;49839;51.798;10.954;2023-08-01T05:15:32;97159.59;;;17.18;nan
63694;BME280;49839;51.798;10.954;2023-08-01T05:18:01;97157.06;;;17.24;nan
63694;BME280;49839;51.798;10.954;2023-08-01T05:20:29;97168.22;;;17.28;nan
63694;BME280;49839;51.798;10.954;2023-08-01T05:22:57;97172.03;;;17.33;nan
63694;BME280;49839;51.798;10.954;2023-08-01T05:25:25;97161.19;;;17.35;nan
63694;BME280;49839;51.798;10.954;2023-08-01T05:27:52;97170.66;;;17.38;nan
63694;BME280;49839;51.798;10.954;2023-08-01T05:30:20;97166.16;;;17.38;nan
63694;BME280;49839;51.798;10.954;2023-08-01T05:32:48;97176.16;;;17.36;nan
63694;BME280;49839;51.798;10.954;2023-08-01T05:35:17;97178.81;;;17.36;nan
63694;BME280;49839;51.798;10.954;2023-08-01T05:37:44;97180.00;;;17.33;nan
63694;BME280;49839;51.798;10.954;2023-08-01T05:40:12;97186.16;;;17.34;nan
63694;BME280;49839;51.798;10.954;2023-08-01T05:42:40;97173.84;;;17.33;nan
63694;BME280;49839;51.798;10.954;2023-08-01T05:45:08;97169.88;;;17.29;nan
63694;BME280;49839;51.798;10.954;2023-08-01T05:47:37;97155.09;;;17.26;nan
63694;BME280;49839;51.798;10.954;2023-08-01T05:50:06;97149.91;;;17.25;nan
63694;BME280;49839;51.798;10.954;2023-08-01T05:52:36;97149.09;;;17.24;nan
63694;BME280;49839;51.798;10.954;2023-08-01T05:55:03;97161.56;;;17.24;nan
63694;BME280;49839;51.798;10.954;2023-08-01T05:57:31;97201.81;;;17.29;nan
63694;BME280;49839;51.798;10.954;2023-08-01T05:59:59;97189.97;;;17.31;nan
63694;BME280;49839;51.798;10.954;2023-08-01T06:02:26;97189.47;;;17.36;nan
63694;BME280;49839;51.798;10.954;2023-08-01T06:04:54;97173.31;;;17.38;nan
63694;BME280;49839;51.798;10.954;2023-08-01T06:07:22;97165.31;;;17.38;nan
63694;BME280;49839;51.798;10.954;2023-08-01T06:09:51;97163.34;;;17.40;nan
63694;BME280;49839;51.798;10.954;2023-08-01T06:12:19;97145.34;;;17.42;nan
63694;BME280;49839;51.798;10.954;2023-08-01T06:14:46;97172.16;;;17.40;nan
63694;BME280;49839;51.798;10.954;2023-08-01T06:17:14;97180.16;;;17.32;nan
63694;BME280;49839;51.798;10.954;2023-08-01T06:19:42;97140.09;;;17.25;nan
63694;BME280;49839;51.798;10.954;2023-08-01T06:22:09;97141.09;;;17.24;nan
63694;BME280;49839;51.798;10.954;2023-08-01T06:24:37;97137.78;;;17.22;nan
63694;BME280;49839;51.798;10.954;2023-08-01T06:27:06;97140.47;;;17.22;nan
63694;BME280;49839;51.798;10.954;2023-08-01T06:29:33;97130.81;;;17.21;nan
63694;BME280;49839;51.798;10.954;2023-08-01T06:32:01;97137.44;;;17.25;nan
63694;BME280;49839;51.798;10.954;2023-08-01T06:34:29;97137.09;;;17.28;nan
63694;BME280;49839;51.798;10.954;2023-08-01T06:36:57;97146.22;;;17.34;nan
63694;BME280;49839;51.798;10.954;2023-08-01T06:39:24;97145.03;;;17.37;nan
63694;BME280;49839;51.798;10.954;2023-08-01T06:41:52;97140.91;;;17.34;nan
63694;BME280;49839;51.798;10.954;2023-08-01T06:44:21;97141.84;;;17.41;nan
63694;BME280;49839;51.798;10.954;2023-08-01T06:46:48;97146.53;;;17.39;nan
63694;BME280;49839;51.798;10.954;2023-08-01T06:49:16;97148.97;;;17.49;nan
63694;BME280;49839;51.798;10.954;2023-08-01T06:51:43;97157.91;;;17.56;nan
63694;BME280;49839;51.798;10.954;2023-08-01T06:54:11;97166.69;;;17.65;nan
63694;BME280;49839;51.798;10.954;2023-08-01T06:56:39;97175.16;;;17.68;nan
63694;BME280;49839;51.798;10.954;2023-08-01T06:59:06;97163.19;;;17.72;nan
63694;BME280;49839;51.798;10.954;2023-08-01T07:01:35;97166.84;;;17.71;nan
63694;BME280;49839;51.798;10.954;2023-08-01T07:04:06;97173.66;;;17.74;nan
63694;BME280;49839;51.798;10.954;2023-08-01T07:06:34;97176.78;;;17.77;nan
63694;BME280;49839;51.798;10.954;2023-08-01T07:09:01;97185.44;;;17.79;nan
63694;BME280;49839;51.798;10.954;2023-08-01T07:11:29;97193.25;;;17.81;nan
63694;BME280;49839;51.798;10.954;2023-08-01T07:13:56;97185.63;;;17.78;nan
63694;BME280;49839;51.798;10.954;2023-08-01T07:16:24;97193.63;;;17.78;nan
63694;BME280;49839;51.798;10.954;2023-08-01T07:18:54;97198.75;;;17.79;nan
63694;BME280;49839;51.798;10.954;2023-08-01T07:21:22;97223.25;;;17.75;nan
63694;BME280;49839;51.798;10.954;2023-08-01T07:23:49;97226.78;;;17.67;nan
63694;BME280;49839;51.798;10.954;2023-08-01T07:26:17;97224.16;;;17.59;nan
63694;BME280;49839;51.798;10.954;2023-08-01T07:28:45;97236.69;;;17.42;nan
63694;BME280;49839;51.798;10.954;2023-08-01T07:31:12;97225.63;;;17.22;nan
63694;BME280;49839;51.798;10.954;2023-08-01T07:33:40;97210.09;;;16.78;nan
63694;BME280;49839;51.798;10.954;2023-08-01T07:36:08;97195.50;;;16.42;nan
63694;BME280;49839;51.798;10.954;2023-08-01T07:38:36;97180.72;;;15.98;nan
63694;BME280;49839;51.798;10.954;2023-08-01T07:41:04;97188.81;;;15.73;nan
63694;BME280;49839;51.798;10.954;2023-08-01T07:43:33;97213.03;;;15.69;nan
63694;BME280;49839;51.798;10.954;2023-08-01T07:46:00;97226.84;;;15.73;nan
63694;BME280;49839;51.798;10.954;2023-08-01T07:48:28;97237.13;;;15.76;nan
63694;BME280;49839;51.798;10.954;2023-08-01T07:50:56;97244.59;;;15.81;nan
63694;BME280;49839;51.798;10.954;2023-08-01T07:53:25;97247.91;;;15.83;nan
63694;BME280;49839;51.798;10.954;2023-08-01T07:55:52;97248.09;;;15.89;nan
63694;BME280;49839;51.798;10.954;2023-08-01T07:58:20;97254.59;;;16.03;nan
63694;BME280;49839;51.798;10.954;2023-08-01T08:00:47;97256.13;;;16.14;nan
63694;BME280;49839;51.798;10.954;2023-08-01T08:03:15;97258.78;;;16.22;nan
63694;BME280;49839;51.798;10.954;2023-08-01T08:05:43;97269.09;;;16.33;nan
63694;BME280;49839;51.798;10.954;2023-08-01T08:08:11;97260.63;;;16.38;nan
63694;BME280;49839;51.798;10.954;2023-08-01T08:10:40;97261.78;;;16.35;nan
63694;BME280;49839;51.798;10.954;2023-08-01T08:13:08;97274.75;;;16.38;nan
63694;BME280;49839;51.798;10.954;2023-08-01T08:15:36;97265.28;;;16.44;nan
63694;BME280;49839;51.798;10.954;2023-08-01T08:18:04;97264.78;;;16.48;nan
63694;BME280;49839;51.798;10.954;2023-08-01T08:20:33;97269.75;;;16.60;nan
63694;BME280;49839;51.798;10.954;2023-08-01T08:23:01;97269.28;;;16.72;nan
63694;BME280;49839;51.798;10.954;2023-08-01T08:25:28;97266.97;;;16.77;nan
63694;BME280;49839;51.798;10.954;2023-08-01T08:27:57;97269.13;;;16.90;nan
63694;BME280;49839;51.798;10.954;2023-08-01T08:30:25;97265.94;;;17.03;nan
63694;BME280;49839;51.798;10.954;2023-08-01T08:32:52;97273.22;;;17.17;nan
63694;BME280;49839;51.798;10.954;2023-08-01T08:35:20;97276.00;;;17.32;nan
63694;BME280;49839;51.798;10.954;2023-08-01T08:37:47;97284.31;;;17.45;nan
63694;BME280;49839;51.798;10.954;2023-08-01T08:40:15;97277.75;;;17.56;nan
63694;BME280;49839;51.798;10.954;2023-08-01T08:42:43;97289.38;;;17.63;nan
63694;BME280;49839;51.798;10.954;2023-08-01T08:45:11;97289.84;;;17.75;nan
63694;BME280;49839;51.798;10.954;2023-08-01T08:47:43;97291.00;;;17.80;nan
63694;BME280;49839;51.798;10.954;2023-08-01T08:50:12;97290.16;;;17.80;nan
63694;BME280;49839;51.798;10.954;2023-08-01T08:52:40;97297.16;;;17.81;nan
63694;BME280;49839;51.798;10.954;2023-08-01T08:55:08;97293.97;;;17.85;nan
63694;BME280;49839;51.798;10.954;2023-08-01T08:57:35;97291.81;;;17.81;nan
63694;BME280;49839;51.798;10.954;2023-08-01T09:00:04;97300.16;;;17.70;nan
63694;BME280;49839;51.798;10.954;2023-08-01T09:02:33;97302.69;;;17.63;nan
63694;BME280;49839;51.798;10.954;2023-08-01T09:05:00;97307.22;;;17.54;nan
63694;BME280;49839;51.798;10.954;2023-08-01T09:07:29;97303.22;;;17.58;nan
63694;BME280;49839;51.798;10.954;2023-08-01T09:09:57;97306.69;;;17.67;nan
63694;BME280;49839;51.798;10.954;2023-08-01T09:12:24;97310.34;;;17.66;nan
63694;BME280;49839;51.798;10.954;2023-08-01T09:14:52;97309.34;;;17.75;nan
63694;BME280;49839;51.798;10.954;2023-08-01T09:17:20;97312.13;;;17.82;nan
63694;BME280;49839;51.798;10.954;2023-08-01T09:19:54;97321.31;;;17.79;nan
63694;BME280;49839;51.798;10.954;2023-08-01T09:22:22;97328.63;;;17.69;nan
63694;BME280;49839;51.798;10.954;2023-08-01T09:24:50;97324.25;;;17.37;nan
63694;BME280;49839;51.798;10.954;2023-08-01T09:27:17;97333.25;;;17.28;nan
63694;BME280;49839;51.798;10.954;2023-08-01T09:29:45;97331.44;;;17.12;nan
63694;BME280;49839;51.798;10.954;2023-08-01T09:32:13;97331.28;;;17.14;nan
63694;BME280;49839;51.798;10.954;2023-08-01T09:34:41;97333.06;;;17.29;nan
63694;BME280;49839;51.798;10.954;2023-08-01T09:37:10;97316.56;;;17.42;nan
63694;BME280;49839;51.798;10.954;2023-08-01T09:39:38;97329.19;;;17.56;nan
63694;BME280;49839;51.798;10.954;2023-08-01T09:42:08;97326.50;;;17.73;nan
63694;BME280;49839;51.798;10.954;2023-08-01T09:44:35;97340.25;;;17.93;nan
63694;BME280;49839;51.798;10.954;2023-08-01T09:47:04;97340.84;;;18.03;nan
63694;BME280;49839;51.798;10.954;2023-08-01T09:49:33;97333.84;;;18.33;nan
63694;BME280;49839;51.798;10.954;2023-08-01T09:52:01;59032.25;;;-144.36;67.20
63694;BME280;49839;51.798;10.954;2023-08-01T09:54:30;97332.75;;;19.48;nan
63694;BME280;49839;51.798;10.954;2023-08-01T09:56:58;97330.50;;;20.26;nan
63694;BME280;49839;51.798;10.954;2023-08-01T09:59:26;59032.25;;;-144.36;67.20
63694;BME280;49839;51.798;10.954;2023-08-01T10:01:57;59032.25;;;-144.36;67.20
63694;BME280;49839;51.798;10.954;2023-08-01T10:04:26;59032.25;;;-144.36;67.20
63694;BME280;49839;51.798;10.954;2023-08-01T10:06:54;59032.25;;;-144.36;67.20
63694;BME280;49839;51.798;10.954;2023-08-01T10:09:26;59032.25;;;-144.36;67.20
63694;BME280;49839;51.798;10.954;2023-08-01T10:11:56;59032.25;;;-144.36;67.20
63694;BME280;49839;51.798;10.954;2023-08-01T10:14:25;59032.25;;;-144.36;67.20
63694;BME280;49839;51.798;10.954;2023-08-01T10:16:53;59032.25;;;-144.36;67.20
63694;BME280;49839;51.798;10.954;2023-08-01T10:19:21;59032.25;;;-144.36;67.20
63694;BME280;49839;51.798;10.954;2023-08-01T10:21:48;59032.25;;;-144.36;67.20
63694;BME280;49839;51.798;10.954;2023-08-01T10:24:20;59032.25;;;-144.36;67.20
63694;BME280;49839;51.798;10.954;2023-08-01T10:26:48;59032.25;;;-144.36;67.20
63694;BME280;49839;51.798;10.954;2023-08-01T10:29:17;59032.25;;;-144.36;67.20
63694;BME280;49839;51.798;10.954;2023-08-01T10:31:51;59032.25;;;-144.36;67.20
63694;BME280;49839;51.798;10.954;2023-08-01T10:34:20;97318.56;;;22.05;nan
63694;BME280;49839;51.798;10.954;2023-08-01T10:36:55;97324.88;;;21.90;nan
63694;BME280;49839;51.798;10.954;2023-08-01T10:39:23;97324.59;;;21.72;nan
63694;BME280;49839;51.798;10.954;2023-08-01T10:42:00;97334.41;;;21.30;nan
63694;BME280;49839;51.798;10.954;2023-08-01T10:44:29;97338.03;;;21.23;nan
63694;BME280;49839;51.798;10.954;2023-08-01T10:46:58;97322.78;;;20.95;nan
63694;BME280;49839;51.798;10.954;2023-08-01T10:49:33;97334.00;;;21.61;nan
63694;BME280;49839;51.798;10.954;2023-08-01T10:52:01;97330.47;;;21.96;nan
63694;BME280;49839;51.798;10.954;2023-08-01T10:54:29;97331.91;;;22.46;nan
63694;BME280;49839;51.798;10.954;2023-08-01T10:56:58;97328.88;;;22.76;nan
63694;BME280;49839;51.798;10.954;2023-08-01T10:59:26;97321.91;;;22.88;nan
63694;BME280;49839;51.798;10.954;2023-08-01T11:01:58;97318.34;;;22.67;nan
63694;BME280;49839;51.798;10.954;2023-08-01T11:04:26;97331.38;;;22.84;nan
63694;BME280;49839;51.798;10.954;2023-08-01T11:06:55;97330.78;;;22.88;nan
63694;BME280;49839;51.798;10.954;2023-08-01T11:09:23;97334.31;;;22.95;nan
63694;BME280;49839;51.798;10.954;2023-08-01T11:11:51;97331.84;;;22.87;nan
63694;BME280;49839;51.798;10.954;2023-08-01T11:14:23;97320.06;;;22.95;nan
63694;BME280;49839;51.798;10.954;2023-08-01T11:16:51;97319.63;;;22.98;nan
63694;BME280;49839;51.798;10.954;2023-08-01T11:19:20;97329.25;;;22.59;nan
63694;BME280;49839;51.798;10.954;2023-08-01T11:21:49;97339.56;;;22.01;nan
63694;BME280;49839;51.798;10.954;2023-08-01T11:24:19;97343.03;;;21.95;nan
63694;BME280;49839;51.798;10.954;2023-08-01T11:26:47;97345.09;;;21.93;nan
63694;BME280;49839;51.798;10.954;2023-08-01T11:29:16;97340.19;;;21.97;nan
63694;BME280;49839;51.798;10.954;2023-08-01T11:31:51;97347.97;;;22.33;nan
63694;BME280;49839;51.798;10.954;2023-08-01T11:34:22;97351.75;;;22.45;nan
63694;BME280;49839;51.798;10.954;2023-08-01T11:36:49;97354.59;;;22.30;nan
63694;BME280;49839;51.798;10.954;2023-08-01T11:39:17;97331.00;;;21.78;nan
63694;BME280;49839;51.798;10.954;2023-08-01T11:41:45;97354.34;;;21.28;nan
63694;BME280;49839;51.798;10.954;2023-08-01T11:44:13;97354.78;;;20.82;nan
63694;BME280;49839;51.798;10.954;2023-08-01T11:46:41;97359.28;;;20.60;nan
63694;BME280;49839;51.798;10.954;2023-08-01T11:49:09;97347.63;;;20.46;nan
63694;BME280;49839;51.798;10.954;2023-08-01T11:51:42;97344.63;;;20.41;nan
63694;BME280;49839;51.798;10.954;2023-08-01T11:54:10;97339.50;;;20.40;nan
63694;BME280;49839;51.798;10.954;2023-08-01T11:56:39;97344.56;;;20.49;nan
63694;BME280;49839;51.798;10.954;2023-08-01T11:59:08;97335.66;;;20.85;nan
63694;BME280;49839;51.798;10.954;2023-08-01T12:01:38;97332.31;;;21.04;nan
63694;BME280;49839;51.798;10.954;2023-08-01T12:04:05;97332.31;;;21.04;nan
63694;BME280;49839;51.798;10.954;2023-08-01T12:06:33;97336.63;;;21.27;nan
63694;BME280;49839;51.798;10.954;2023-08-01T12:09:09;97338.56;;;21.33;nan
63694;BME280;49839;51.798;10.954;2023-08-01T12:11:40;97338.16;;;21.36;nan
63694;BME280;49839;51.798;10.954;2023-08-01T12:14:09;97342.16;;;21.47;nan
63694;BME280;49839;51.798;10.954;2023-08-01T12:16:41;97348.91;;;21.71;nan
63694;BME280;49839;51.798;10.954;2023-08-01T12:19:12;97349.50;;;21.66;nan
63694;BME280;49839;51.798;10.954;2023-08-01T12:21:43;97358.66;;;21.50;nan
63694;BME280;49839;51.798;10.954;2023-08-01T12:24:13;97362.78;;;21.46;nan
63694;BME280;49839;51.798;10.954;2023-08-01T12:26:43;97360.00;;;21.68;nan
63694;BME280;49839;51.798;10.954;2023-08-01T12:29:10;97358.28;;;21.88;nan
63694;BME280;49839;51.798;10.954;2023-08-01T12:31:38;97354.69;;;22.09;nan
63694;BME280;49839;51.798;10.954;2023-08-01T12:34:06;97346.56;;;22.02;nan
63694;BME280;49839;51.798;10.954;2023-08-01T12:36:36;97351.13;;;22.02;nan
63694;BME280;49839;51.798;10.954;2023-08-01T12:39:05;97362.28;;;22.05;nan
63694;BME280;49839;51.798;10.954;2023-08-01T12:41:38;97367.91;;;22.10;nan
63694;BME280;49839;51.798;10.954;2023-08-01T12:44:06;97361.75;;;22.16;nan
63694;BME280;49839;51.798;10.954;2023-08-01T12:46:34;97379.28;;;22.12;nan
63694;BME280;49839;51.798;10.954;2023-08-01T12:49:01;97374.13;;;22.11;nan
63694;BME280;49839;51.798;10.954;2023-08-01T12:51:29;97367.50;;;22.13;nan
63694;BME280;49839;51.798;10.954;2023-08-01T12:53:59;97351.91;;;22.30;nan
63694;BME280;49839;51.798;10.954;2023-08-01T12:56:27;97370.53;;;22.04;nan
63694;BME280;49839;51.798;10.954;2023-08-01T12:58:56;97364.50;;;21.95;nan
63694;BME280;49839;51.798;10.954;2023-08-01T13:01:26;97370.06;;;21.94;nan
63694;BME280;49839;51.798;10.954;2023-08-01T13:03:54;97359.19;;;22.08;nan
63694;BME280;49839;51.798;10.954;2023-08-01T13:06:22;97369.28;;;22.00;nan
63694;BME280;49839;51.798;10.954;2023-08-01T13:08:49;97366.28;;;22.09;nan
63694;BME280;49839;51.798;10.954;2023-08-01T13:11:17;97371.38;;;22.04;nan
63694;BME280;49839;51.798;10.954;2023-08-01T13:13:44;97370.94;;;22.07;nan
63694;BME280;49839;51.798;10.954;2023-08-01T13:16:14;97371.38;;;22.04;nan